createdAt,value
2017-03-31T00:00:45.888Z,99.99
2017-03-31T00:01:45.876Z,99.99
2017-03-31T00:02:45.552Z,99.99
2017-03-31T00:03:45.854Z,99.99
2017-03-31T00:04:45.840Z,99.99
2017-03-31T00:05:45.830Z,99.99
2017-03-31T00:06:45.816Z,99.99
2017-03-31T00:07:45.802Z,99.99
2017-03-31T00:08:45.790Z,99.99
2017-03-31T00:09:45.778Z,99.99
2017-03-31T00:10:45.767Z,99.99
2017-03-31T00:11:45.802Z,99.99
2017-03-31T00:12:45.752Z,99.99
2017-03-31T00:13:45.728Z,99.99
2017-03-31T00:14:45.715Z,99.99
2017-03-31T00:15:45.704Z,99.99
2017-03-31T00:16:45.376Z,99.99
2017-03-31T00:17:45.365Z,99.99
2017-03-31T00:18:45.668Z,99.99
2017-03-31T00:19:45.657Z,99.99
2017-03-31T00:20:45.641Z,99.99
2017-03-31T00:21:45.629Z,99.99
2017-03-31T00:22:45.616Z,99.99
2017-03-31T00:23:45.601Z,99.99
2017-03-31T00:24:45.594Z,99.99
2017-03-31T00:25:45.579Z,99.99
2017-03-31T00:26:45.565Z,99.99
2017-03-31T00:27:45.548Z,99.99
2017-03-31T00:28:45.540Z,99.99
2017-03-31T00:29:45.528Z,99.99
2017-03-31T00:30:45.567Z,99.99
2017-03-31T00:31:45.188Z,99.99
2017-03-31T00:32:45.491Z,99.99
2017-03-31T00:33:45.483Z,99.99
2017-03-31T00:34:45.461Z,99.99
2017-03-31T00:35:45.448Z,99.99
2017-03-31T00:36:45.438Z,99.99
2017-03-31T00:37:45.425Z,99.99
2017-03-31T00:38:45.415Z,99.99
2017-03-31T00:39:45.402Z,99.99
2017-03-31T00:40:45.589Z,99.99
2017-03-31T00:41:45.576Z,99.99
2017-03-31T00:42:45.360Z,99.99
2017-03-31T00:43:45.351Z,99.99
2017-03-31T00:44:45.336Z,99.99
2017-03-31T00:45:45.321Z,99.99
2017-03-31T00:46:45.000Z,99.99
2017-03-31T00:47:44.991Z,99.99
2017-03-31T00:48:45.283Z,99.99
2017-03-31T00:49:44.960Z,99.99
2017-03-31T00:50:44.947Z,99.99
2017-03-31T00:51:44.962Z,99.99
2017-03-31T00:52:45.239Z,99.99
2017-03-31T00:53:44.907Z,99.99
2017-03-31T00:54:44.895Z,99.99
2017-03-31T00:55:45.193Z,99.99
2017-03-31T00:56:45.182Z,99.99
2017-03-31T00:57:44.857Z,99.99
2017-03-31T00:58:45.156Z,99.99
2017-03-31T00:59:44.830Z,99.99
2017-03-31T01:00:44.824Z,99.99
2017-03-31T01:01:44.804Z,99.99
2017-03-31T01:02:44.791Z,99.99
2017-03-31T01:03:44.781Z,99.99
2017-03-31T01:04:45.080Z,99.99
2017-03-31T01:05:45.069Z,99.99
2017-03-31T01:06:45.056Z,99.99
2017-03-31T01:07:45.041Z,99.99
2017-03-31T01:08:45.031Z,99.99
2017-03-31T01:09:45.014Z,99.99
2017-03-31T01:10:44.999Z,99.99
2017-03-31T01:11:44.990Z,99.99
2017-03-31T01:12:44.975Z,99.99
2017-03-31T01:13:44.962Z,99.99
2017-03-31T01:14:44.955Z,99.99
2017-03-31T01:15:44.938Z,99.99
2017-03-31T01:16:44.924Z,99.99
2017-03-31T01:17:44.910Z,99.99
2017-03-31T01:18:44.904Z,99.99
2017-03-31T01:19:44.892Z,99.99
2017-03-31T01:20:44.876Z,99.99
2017-03-31T01:21:44.863Z,99.99
2017-03-31T01:22:44.850Z,99.99
2017-03-31T01:23:44.831Z,99.99
2017-03-31T01:24:44.818Z,99.99
2017-03-31T01:25:44.810Z,99.99
2017-03-31T01:26:44.796Z,99.99
2017-03-31T01:27:44.784Z,99.99
2017-03-31T01:28:44.770Z,99.99
2017-03-31T01:29:44.805Z,99.99
2017-03-31T01:30:44.743Z,99.99
2017-03-31T01:31:44.728Z,99.99
2017-03-31T01:32:44.724Z,99.99
2017-03-31T01:33:44.706Z,99.99
2017-03-31T01:34:44.692Z,99.99
2017-03-31T01:35:44.679Z,99.99
2017-03-31T01:36:44.665Z,99.99
2017-03-31T01:37:44.651Z,99.99
2017-03-31T01:38:44.639Z,99.99
2017-03-31T01:39:44.626Z,99.99
2017-03-31T01:40:44.614Z,99.99
2017-03-31T01:41:44.602Z,99.99
2017-03-31T01:42:44.594Z,99.99
2017-03-31T01:43:44.576Z,99.99
2017-03-31T01:44:44.564Z,99.99
2017-03-31T01:45:44.549Z,99.99
2017-03-31T01:46:44.537Z,99.99
2017-03-31T01:47:44.521Z,99.99
2017-03-31T01:48:44.510Z,99.99
2017-03-31T01:49:44.497Z,99.99
2017-03-31T01:50:44.486Z,99.99
2017-03-31T01:51:44.485Z,99.99
2017-03-31T01:52:44.467Z,99.99
2017-03-31T01:53:44.444Z,99.99
2017-03-31T01:54:44.438Z,99.99
2017-03-31T01:55:44.417Z,99.99
2017-03-31T01:56:44.407Z,99.99
2017-03-31T01:57:44.390Z,99.99
2017-03-31T01:58:44.382Z,99.99
2017-03-31T01:59:44.365Z,99.99
2017-03-31T02:00:44.356Z,99.99
2017-03-31T02:01:44.338Z,99.99
2017-03-31T02:02:44.324Z,99.99
2017-03-31T02:03:44.319Z,99.99
2017-03-31T02:04:44.301Z,99.99
2017-03-31T02:05:44.290Z,99.99
2017-03-31T02:06:44.281Z,99.99
2017-03-31T02:07:44.263Z,99.99
2017-03-31T02:08:44.251Z,99.99
2017-03-31T02:09:44.235Z,99.99
2017-03-31T02:10:44.222Z,99.99
2017-03-31T02:11:44.211Z,99.99
2017-03-31T02:12:44.201Z,99.99
2017-03-31T02:13:44.182Z,99.99
2017-03-31T02:14:44.166Z,99.99
2017-03-31T02:15:44.156Z,99.99
2017-03-31T02:16:44.144Z,99.99
2017-03-31T02:17:44.135Z,99.99
2017-03-31T02:18:44.116Z,99.99
2017-03-31T02:19:44.105Z,99.99
2017-03-31T02:20:44.093Z,99.99
2017-03-31T02:21:44.077Z,99.99
2017-03-31T02:22:43.758Z,99.99
2017-03-31T02:23:44.052Z,99.99
2017-03-31T02:24:44.056Z,99.99
2017-03-31T02:25:43.721Z,99.99
2017-03-31T02:26:44.016Z,99.99
2017-03-31T02:27:43.997Z,99.99
2017-03-31T02:28:43.987Z,99.99
2017-03-31T02:29:43.977Z,99.99
2017-03-31T02:30:44.012Z,99.99
2017-03-31T02:31:43.639Z,99.99
2017-03-31T02:32:43.622Z,99.99
2017-03-31T02:33:43.923Z,99.99
2017-03-31T02:34:43.593Z,99.99
2017-03-31T02:35:43.893Z,99.99
2017-03-31T02:36:43.880Z,99.99
2017-03-31T02:37:43.552Z,99.99
2017-03-31T02:38:43.874Z,99.99
2017-03-31T02:39:43.843Z,99.99
2017-03-31T02:40:44.029Z,99.99
2017-03-31T02:41:43.819Z,99.99
2017-03-31T02:42:43.841Z,99.99
2017-03-31T02:43:43.788Z,99.99
2017-03-31T02:44:43.775Z,99.99
2017-03-31T02:45:43.764Z,99.99
2017-03-31T02:46:43.749Z,99.99
2017-03-31T02:47:43.732Z,99.99
2017-03-31T02:48:43.718Z,99.99
2017-03-31T02:49:43.393Z,99.99
2017-03-31T02:50:43.692Z,99.99
2017-03-31T02:51:43.681Z,99.99
2017-03-31T02:52:43.663Z,99.99
2017-03-31T02:53:43.649Z,99.99
2017-03-31T02:54:43.646Z,99.99
2017-03-31T02:55:43.631Z,99.99
2017-03-31T02:56:43.621Z,99.99
2017-03-31T02:57:43.606Z,99.99
2017-03-31T02:58:43.587Z,99.99
2017-03-31T02:59:43.572Z,99.99
2017-03-31T03:00:43.556Z,99.99
2017-03-31T03:01:43.596Z,99.99
2017-03-31T03:02:43.531Z,99.99
2017-03-31T03:03:43.514Z,99.99
2017-03-31T03:04:43.194Z,99.99
2017-03-31T03:05:43.490Z,99.99
2017-03-31T03:06:43.479Z,99.99
2017-03-31T03:07:43.461Z,99.99
2017-03-31T03:08:43.447Z,99.99
2017-03-31T03:09:43.435Z,99.99
2017-03-31T03:10:43.471Z,99.99
2017-03-31T03:11:43.408Z,99.99
2017-03-31T03:12:43.393Z,99.99
2017-03-31T03:13:43.069Z,99.99
2017-03-31T03:14:43.367Z,99.99
2017-03-31T03:15:43.355Z,99.99
2017-03-31T03:16:43.343Z,99.99
2017-03-31T03:17:43.332Z,99.99
2017-03-31T03:18:43.314Z,99.99
2017-03-31T03:19:43.306Z,99.99
2017-03-31T03:20:43.287Z,99.99
2017-03-31T03:21:43.273Z,99.99
2017-03-31T03:22:42.944Z,99.99
2017-03-31T03:23:43.245Z,99.99
2017-03-31T03:24:43.258Z,99.99
2017-03-31T03:25:42.904Z,99.99
2017-03-31T03:26:43.211Z,99.99
2017-03-31T03:27:43.186Z,99.99
2017-03-31T03:28:43.174Z,99.99
2017-03-31T03:29:43.161Z,99.99
2017-03-31T03:30:42.835Z,99.99
2017-03-31T03:31:43.136Z,99.99
2017-03-31T03:32:43.327Z,99.99
2017-03-31T03:33:43.107Z,99.99
2017-03-31T03:34:43.092Z,99.99
2017-03-31T03:35:43.083Z,99.99
2017-03-31T03:36:43.067Z,99.99
2017-03-31T03:37:43.049Z,99.99
2017-03-31T03:38:43.043Z,99.99
2017-03-31T03:39:43.033Z,99.99
2017-03-31T03:40:43.013Z,99.99
2017-03-31T03:41:42.999Z,99.99
2017-03-31T03:42:42.987Z,99.99
2017-03-31T03:43:42.970Z,99.99
2017-03-31T03:44:42.643Z,99.99
2017-03-31T03:45:42.947Z,99.99
2017-03-31T03:46:42.931Z,99.99
2017-03-31T03:47:42.602Z,99.99
2017-03-31T03:48:42.901Z,99.99
2017-03-31T03:49:42.886Z,99.99
2017-03-31T03:50:42.873Z,99.99
2017-03-31T03:51:42.546Z,99.99
2017-03-31T03:52:42.843Z,99.99
2017-03-31T03:53:42.837Z,99.99
2017-03-31T03:54:42.815Z,99.99
2017-03-31T03:55:42.806Z,99.99
2017-03-31T03:56:42.793Z,99.99
2017-03-31T03:57:42.776Z,99.99
2017-03-31T03:58:42.765Z,99.99
2017-03-31T03:59:42.801Z,99.99
2017-03-31T04:00:42.432Z,99.99
2017-03-31T04:01:42.721Z,99.99
2017-03-31T04:02:42.710Z,99.99
2017-03-31T04:03:42.696Z,99.99
2017-03-31T04:04:42.683Z,99.99
2017-03-31T04:05:42.665Z,99.99
2017-03-31T04:06:42.653Z,99.99
2017-03-31T04:07:42.643Z,99.99
2017-03-31T04:08:42.622Z,99.99
2017-03-31T04:09:42.612Z,99.99
2017-03-31T04:10:42.597Z,99.99
2017-03-31T04:11:42.302Z,99.99
2017-03-31T04:12:42.569Z,99.99
2017-03-31T04:13:42.554Z,99.99
2017-03-31T04:14:42.542Z,99.99
2017-03-31T04:15:42.525Z,99.99
2017-03-31T04:16:42.514Z,99.99
2017-03-31T04:17:42.499Z,99.99
2017-03-31T04:18:42.485Z,99.99
2017-03-31T04:19:42.476Z,99.99
2017-03-31T04:20:42.458Z,99.99
2017-03-31T04:21:42.443Z,99.99
2017-03-31T04:22:42.430Z,99.99
2017-03-31T04:23:42.415Z,99.99
2017-03-31T04:24:42.405Z,99.99
2017-03-31T04:25:42.388Z,99.99
2017-03-31T04:26:42.063Z,99.99
2017-03-31T04:27:42.052Z,99.99
2017-03-31T04:28:42.344Z,99.99
2017-03-31T04:29:42.333Z,99.99
2017-03-31T04:30:42.318Z,99.99
2017-03-31T04:31:42.304Z,99.99
2017-03-31T04:32:42.290Z,99.99
2017-03-31T04:33:42.278Z,99.99
2017-03-31T04:34:42.265Z,99.99
2017-03-31T04:35:41.933Z,99.99
2017-03-31T04:36:42.252Z,99.99
2017-03-31T04:37:41.909Z,99.99
2017-03-31T04:38:42.205Z,99.99
2017-03-31T04:39:42.191Z,99.99
2017-03-31T04:40:42.379Z,99.99
2017-03-31T04:41:42.159Z,99.99
2017-03-31T04:42:42.148Z,99.99
2017-03-31T04:43:41.826Z,99.99
2017-03-31T04:44:42.124Z,99.99
2017-03-31T04:45:42.107Z,99.99
2017-03-31T04:46:42.094Z,99.99
2017-03-31T04:47:42.081Z,99.99
2017-03-31T04:48:42.067Z,99.99
2017-03-31T04:49:42.049Z,99.99
2017-03-31T04:50:42.031Z,99.99
2017-03-31T04:51:42.019Z,99.99
2017-03-31T04:52:42.006Z,99.99
2017-03-31T04:53:41.682Z,99.99
2017-03-31T04:54:41.978Z,99.99
2017-03-31T04:55:41.966Z,99.99
2017-03-31T04:56:41.953Z,99.99
2017-03-31T04:57:41.936Z,99.99
2017-03-31T04:58:41.920Z,99.99
2017-03-31T04:59:41.927Z,99.99
2017-03-31T05:00:41.893Z,99.99
2017-03-31T05:01:41.880Z,99.99
2017-03-31T05:02:41.551Z,99.99
2017-03-31T05:03:41.854Z,99.99
2017-03-31T05:04:41.833Z,99.99
2017-03-31T05:05:41.823Z,99.99
2017-03-31T05:06:41.491Z,99.99
2017-03-31T05:07:41.827Z,99.99
2017-03-31T05:08:41.778Z,99.99
2017-03-31T05:09:41.763Z,99.99
2017-03-31T05:10:41.748Z,99.99
2017-03-31T05:11:41.737Z,99.99
2017-03-31T05:12:41.923Z,99.99
2017-03-31T05:13:41.707Z,99.99
2017-03-31T05:14:41.690Z,99.99
2017-03-31T05:15:41.365Z,99.99
2017-03-31T05:16:41.667Z,99.99
2017-03-31T05:17:41.338Z,99.99
2017-03-31T05:18:41.320Z,99.99
2017-03-31T05:19:41.621Z,99.99
2017-03-31T05:20:41.611Z,99.99
2017-03-31T05:21:41.283Z,99.99
2017-03-31T05:22:41.577Z,99.99
2017-03-31T05:23:41.254Z,99.99
2017-03-31T05:24:41.235Z,99.99
2017-03-31T05:25:41.531Z,99.99
2017-03-31T05:26:41.521Z,99.99
2017-03-31T05:27:41.193Z,99.99
2017-03-31T05:28:41.492Z,99.99
2017-03-31T05:29:41.163Z,99.99
2017-03-31T05:30:41.464Z,99.99
2017-03-31T05:31:41.452Z,99.99
2017-03-31T05:32:41.432Z,99.99
2017-03-31T05:33:41.424Z,99.99
2017-03-31T05:34:41.406Z,99.99
2017-03-31T05:35:41.392Z,99.99
2017-03-31T05:36:41.379Z,99.99
2017-03-31T05:37:41.055Z,99.99
2017-03-31T05:38:41.353Z,99.99
2017-03-31T05:39:41.341Z,99.99
2017-03-31T05:40:41.320Z,99.99
2017-03-31T05:41:41.313Z,99.99
2017-03-31T05:42:41.296Z,99.99
2017-03-31T05:43:41.281Z,99.99
2017-03-31T05:44:41.268Z,99.99
2017-03-31T05:45:41.253Z,99.99
2017-03-31T05:46:41.240Z,99.99
2017-03-31T05:47:41.224Z,99.99
2017-03-31T05:48:41.258Z,99.99
2017-03-31T05:49:41.195Z,99.99
2017-03-31T05:50:41.194Z,99.99
2017-03-31T05:51:41.172Z,99.99
2017-03-31T05:52:41.160Z,99.99
2017-03-31T05:53:40.828Z,99.99
2017-03-31T05:54:40.813Z,99.99
2017-03-31T05:55:41.114Z,99.99
2017-03-31T05:56:40.788Z,99.99
2017-03-31T05:57:41.087Z,99.99
2017-03-31T05:58:41.076Z,99.99
2017-03-31T05:59:41.057Z,99.99
2017-03-31T06:00:41.045Z,99.99
2017-03-31T06:01:41.040Z,99.99
2017-03-31T06:02:41.017Z,99.99
2017-03-31T06:03:41.008Z,99.99
2017-03-31T06:04:40.682Z,99.99
2017-03-31T06:05:40.975Z,99.99
2017-03-31T06:06:40.968Z,99.99
2017-03-31T06:07:40.952Z,99.99
2017-03-31T06:08:40.936Z,99.99
2017-03-31T06:09:40.921Z,99.99
2017-03-31T06:10:40.918Z,99.99
2017-03-31T06:11:40.898Z,99.99
2017-03-31T06:12:40.881Z,99.99
2017-03-31T06:13:40.873Z,99.99
2017-03-31T06:14:40.856Z,99.99
2017-03-31T06:15:40.842Z,99.99
2017-03-31T06:16:40.835Z,99.99
2017-03-31T06:17:40.818Z,99.99
2017-03-31T06:18:40.489Z,99.99
2017-03-31T06:19:40.796Z,99.99
2017-03-31T06:20:40.463Z,99.99
2017-03-31T06:21:40.762Z,99.99
2017-03-31T06:22:40.750Z,99.99
2017-03-31T06:23:40.734Z,99.99
2017-03-31T06:24:40.721Z,99.99
2017-03-31T06:25:40.710Z,99.99
2017-03-31T06:26:40.756Z,99.99
2017-03-31T06:27:40.684Z,99.99
2017-03-31T06:28:40.672Z,99.99
2017-03-31T06:29:40.661Z,99.99
2017-03-31T06:30:40.646Z,99.99
2017-03-31T06:31:40.647Z,99.99
2017-03-31T06:32:40.632Z,99.99
2017-03-31T06:33:40.607Z,99.99
2017-03-31T06:34:40.592Z,99.99
2017-03-31T06:35:40.588Z,99.99
2017-03-31T06:36:40.568Z,99.99
2017-03-31T06:37:40.569Z,99.99
2017-03-31T06:38:40.540Z,99.99
2017-03-31T06:39:40.531Z,99.99
2017-03-31T06:40:40.722Z,99.99
2017-03-31T06:41:40.507Z,99.99
2017-03-31T06:42:40.493Z,99.99
2017-03-31T06:43:40.169Z,99.99
2017-03-31T06:44:40.472Z,99.99
2017-03-31T06:45:40.458Z,99.99
2017-03-31T06:46:40.444Z,99.99
2017-03-31T06:47:40.437Z,99.99
2017-03-31T06:48:40.423Z,99.99
2017-03-31T06:49:40.435Z,99.99
2017-03-31T06:50:40.395Z,99.99
2017-03-31T06:51:40.385Z,99.99
2017-03-31T06:52:40.371Z,99.99
2017-03-31T06:53:40.359Z,99.99
2017-03-31T06:54:40.348Z,99.99
2017-03-31T06:55:40.337Z,99.99
2017-03-31T06:56:40.326Z,99.99
2017-03-31T06:57:40.314Z,99.99
2017-03-31T06:58:40.300Z,99.99
2017-03-31T06:59:40.289Z,99.99
2017-03-31T07:00:40.275Z,99.99
2017-03-31T07:01:40.265Z,99.99
2017-03-31T07:02:40.251Z,99.99
2017-03-31T07:03:39.987Z,99.99
2017-03-31T07:04:40.236Z,99.99
2017-03-31T07:05:40.221Z,99.99
2017-03-31T07:06:39.898Z,99.99
2017-03-31T07:07:40.196Z,99.99
2017-03-31T07:08:40.186Z,99.99
2017-03-31T07:09:39.866Z,99.99
2017-03-31T07:10:40.166Z,99.99
2017-03-31T07:11:39.844Z,99.99
2017-03-31T07:12:40.139Z,99.99
2017-03-31T07:13:40.131Z,99.99
2017-03-31T07:14:40.122Z,99.99
2017-03-31T07:15:40.109Z,99.99
2017-03-31T07:16:40.102Z,99.99
2017-03-31T07:17:40.090Z,99.99
2017-03-31T07:18:40.075Z,99.99
2017-03-31T07:19:40.266Z,99.99
2017-03-31T07:20:40.053Z,99.99
2017-03-31T07:21:40.049Z,99.99
2017-03-31T07:22:40.035Z,99.99
2017-03-31T07:23:40.022Z,99.99
2017-03-31T07:24:40.012Z,99.99
2017-03-31T07:25:40.050Z,99.99
2017-03-31T07:26:39.990Z,99.99
2017-03-31T07:27:39.979Z,99.99
2017-03-31T07:28:39.968Z,99.99
2017-03-31T07:29:39.956Z,99.99
2017-03-31T07:30:39.947Z,99.99
2017-03-31T07:31:39.936Z,99.99
2017-03-31T07:32:39.928Z,99.99
2017-03-31T07:33:39.914Z,98.96
2017-03-31T07:34:39.908Z,97.56
2017-03-31T07:35:39.894Z,98.28
2017-03-31T07:36:39.885Z,98.77
2017-03-31T07:37:39.874Z,98.19
2017-03-31T07:38:39.561Z,97.71
2017-03-31T07:39:39.859Z,97.52
2017-03-31T07:40:39.840Z,96.66
2017-03-31T07:41:39.836Z,97.14
2017-03-31T07:42:39.823Z,96.75
2017-03-31T07:43:39.818Z,97.42
2017-03-31T07:44:39.803Z,97.38
2017-03-31T07:45:39.792Z,98.33
2017-03-31T07:46:39.786Z,95.26
2017-03-31T07:47:39.478Z,94.79
2017-03-31T07:48:39.765Z,94.79
2017-03-31T07:49:39.750Z,93.15
2017-03-31T07:50:39.747Z,93.3
2017-03-31T07:51:39.735Z,92.14
2017-03-31T07:52:39.411Z,91.86
2017-03-31T07:53:39.720Z,91.66
2017-03-31T07:54:39.706Z,93.3
2017-03-31T07:55:39.384Z,90.22
2017-03-31T07:56:39.691Z,89.5
2017-03-31T07:57:39.674Z,89.31
2017-03-31T07:58:39.668Z,87.58
2017-03-31T07:59:39.664Z,87.19
2017-03-31T08:00:39.645Z,88.54
2017-03-31T08:01:39.328Z,87.87
2017-03-31T08:02:39.632Z,89.4
2017-03-31T08:03:39.622Z,89.12
2017-03-31T08:04:39.298Z,86.33
2017-03-31T08:05:39.288Z,88.01
2017-03-31T08:06:39.593Z,85.8
2017-03-31T08:07:39.586Z,85.61
2017-03-31T08:08:39.263Z,85.99
2017-03-31T08:09:39.566Z,84.17
2017-03-31T08:10:39.246Z,83.69
2017-03-31T08:11:39.237Z,83.59
2017-03-31T08:12:39.225Z,81.67
2017-03-31T08:13:39.214Z,80.8
2017-03-31T08:14:39.537Z,81.23
2017-03-31T08:15:39.512Z,81.09
2017-03-31T08:16:39.508Z,81.23
2017-03-31T08:17:39.495Z,79.79
2017-03-31T08:18:39.490Z,80.07
2017-03-31T08:19:39.481Z,79.11
2017-03-31T08:20:39.472Z,78.28
2017-03-31T08:21:39.466Z,76.07
2017-03-31T08:22:39.463Z,75.98
2017-03-31T08:23:39.452Z,77.36
2017-03-31T08:24:39.439Z,75.15
2017-03-31T08:25:39.436Z,74.48
2017-03-31T08:26:39.428Z,75.63
2017-03-31T08:27:39.420Z,75.86
2017-03-31T08:28:39.412Z,74.9
2017-03-31T08:29:39.402Z,74.41
2017-03-31T08:30:39.393Z,74.61
2017-03-31T08:31:39.391Z,72.78
2017-03-31T08:32:39.379Z,72.49
2017-03-31T08:33:39.370Z,72.88
2017-03-31T08:34:39.368Z,71.08
2017-03-31T08:35:39.363Z,69.35
2017-03-31T08:36:39.358Z,69.15
2017-03-31T08:37:39.356Z,68.99
2017-03-31T08:38:39.338Z,69.83
2017-03-31T08:39:39.352Z,69.48
2017-03-31T08:40:39.326Z,68.77
2017-03-31T08:41:39.324Z,68
2017-03-31T08:42:39.325Z,68.58
2017-03-31T08:43:39.309Z,68.64
2017-03-31T08:44:39.318Z,68.54
2017-03-31T08:45:39.292Z,68.77
2017-03-31T08:46:39.285Z,68.58
2017-03-31T08:47:39.278Z,69.7
2017-03-31T08:48:39.277Z,70.5
2017-03-31T08:49:39.290Z,70.47
2017-03-31T08:50:39.260Z,70.76
2017-03-31T08:51:38.944Z,70.37
2017-03-31T08:52:39.254Z,69.22
2017-03-31T08:53:39.246Z,69.89
2017-03-31T08:54:39.438Z,69.18
2017-03-31T08:55:39.228Z,69.28
2017-03-31T08:56:39.224Z,68.64
2017-03-31T08:57:39.215Z,70.18
2017-03-31T08:58:39.206Z,68.74
2017-03-31T08:59:39.205Z,68.13
2017-03-31T09:00:39.194Z,69.18
2017-03-31T09:01:38.893Z,68.22
2017-03-31T09:02:39.182Z,68.6
2017-03-31T09:03:38.862Z,67.87
2017-03-31T09:04:39.171Z,67.68
2017-03-31T09:05:39.168Z,68.1
2017-03-31T09:06:39.154Z,66.85
2017-03-31T09:07:39.150Z,67.52
2017-03-31T09:08:39.141Z,67.03
2017-03-31T09:09:39.184Z,68.1
2017-03-31T09:10:39.145Z,66.85
2017-03-31T09:11:39.125Z,65.91
2017-03-31T09:12:39.114Z,65.91
2017-03-31T09:13:39.109Z,66.01
2017-03-31T09:14:39.103Z,65.24
2017-03-31T09:15:39.100Z,65.53
2017-03-31T09:16:39.103Z,65.53
2017-03-31T09:17:39.089Z,65.91
2017-03-31T09:18:39.080Z,65.14
2017-03-31T09:19:39.073Z,65.91
2017-03-31T09:20:39.071Z,64.95
2017-03-31T09:21:39.062Z,64.86
2017-03-31T09:22:39.062Z,64.08
2017-03-31T09:23:39.101Z,64.08
2017-03-31T09:24:39.059Z,64.98
2017-03-31T09:25:39.039Z,63.82
2017-03-31T09:26:39.086Z,63.34
2017-03-31T09:27:39.036Z,64.02
2017-03-31T09:28:39.021Z,64.37
2017-03-31T09:29:39.019Z,63.98
2017-03-31T09:30:39.011Z,64.89
2017-03-31T09:31:39.011Z,65.05
2017-03-31T09:32:39.003Z,64.31
2017-03-31T09:33:38.996Z,65.08
2017-03-31T09:34:38.992Z,63.82
2017-03-31T09:35:38.673Z,63.92
2017-03-31T09:36:38.981Z,65.3
2017-03-31T09:37:38.982Z,63.47
2017-03-31T09:38:38.970Z,62.25
2017-03-31T09:39:38.967Z,63.37
2017-03-31T09:40:38.964Z,64.05
2017-03-31T09:41:38.956Z,62.73
2017-03-31T09:42:38.956Z,62.79
2017-03-31T09:43:38.946Z,62.7
2017-03-31T09:44:38.676Z,63.18
2017-03-31T09:45:38.935Z,62.89
2017-03-31T09:46:38.933Z,63.09
2017-03-31T09:47:38.929Z,63.24
2017-03-31T09:48:38.921Z,65.17
2017-03-31T09:49:38.915Z,65.2
2017-03-31T09:50:38.908Z,63.47
2017-03-31T09:51:38.915Z,63.47
2017-03-31T09:52:38.899Z,63.28
2017-03-31T09:53:38.895Z,63.37
2017-03-31T09:54:38.887Z,63.67
2017-03-31T09:55:38.887Z,64.24
2017-03-31T09:56:38.879Z,63.76
2017-03-31T09:57:38.876Z,62.92
2017-03-31T09:58:38.874Z,63.12
2017-03-31T09:59:38.869Z,62.66
2017-03-31T10:00:38.864Z,62.63
2017-03-31T10:01:38.859Z,62.54
2017-03-31T10:02:38.864Z,64.08
2017-03-31T10:03:38.847Z,62.15
2017-03-31T10:04:38.541Z,62.63
2017-03-31T10:05:38.853Z,62.63
2017-03-31T10:06:38.839Z,63.4
2017-03-31T10:07:38.534Z,62.76
2017-03-31T10:08:38.831Z,62.95
2017-03-31T10:09:38.823Z,61.05
2017-03-31T10:10:38.819Z,61.8
2017-03-31T10:11:38.814Z,62.05
2017-03-31T10:12:38.818Z,60.99
2017-03-31T10:13:38.802Z,61.09
2017-03-31T10:14:38.799Z,62.92
2017-03-31T10:15:38.794Z,62.63
2017-03-31T10:16:38.789Z,60.83
2017-03-31T10:17:38.785Z,61.12
2017-03-31T10:18:38.780Z,60.44
2017-03-31T10:19:38.779Z,60.28
2017-03-31T10:20:38.772Z,59.31
2017-03-31T10:21:38.817Z,59.77
2017-03-31T10:22:38.762Z,60.44
2017-03-31T10:23:38.759Z,61.41
2017-03-31T10:24:38.754Z,61.12
2017-03-31T10:25:38.753Z,61.57
2017-03-31T10:26:38.744Z,60.35
2017-03-31T10:27:38.740Z,60.83
2017-03-31T10:28:38.733Z,61.12
2017-03-31T10:29:38.729Z,62.86
2017-03-31T10:30:38.725Z,61.02
2017-03-31T10:31:38.721Z,60.09
2017-03-31T10:32:38.714Z,59.6
2017-03-31T10:33:38.709Z,59.41
2017-03-31T10:34:38.707Z,59.63
2017-03-31T10:35:38.393Z,59.63
2017-03-31T10:36:38.698Z,60.02
2017-03-31T10:37:38.696Z,59.63
2017-03-31T10:38:38.690Z,62.24
2017-03-31T10:39:38.688Z,58.89
2017-03-31T10:40:38.736Z,58.95
2017-03-31T10:41:38.879Z,58.57
2017-03-31T10:42:38.675Z,59.22
2017-03-31T10:43:38.669Z,59.51
2017-03-31T10:44:38.664Z,59.28
2017-03-31T10:45:38.664Z,59.67
2017-03-31T10:46:38.663Z,61.09
2017-03-31T10:47:38.654Z,60.31
2017-03-31T10:48:38.649Z,60.41
2017-03-31T10:49:38.648Z,61.22
2017-03-31T10:50:38.638Z,60.25
2017-03-31T10:51:38.631Z,59.02
2017-03-31T10:52:38.627Z,58.73
2017-03-31T10:53:38.626Z,58.54
2017-03-31T10:54:38.621Z,57.48
2017-03-31T10:55:38.614Z,57.99
2017-03-31T10:56:38.612Z,57.31
2017-03-31T10:57:38.610Z,57.51
2017-03-31T10:58:38.600Z,59.25
2017-03-31T10:59:38.609Z,58.54
2017-03-31T11:00:38.593Z,57.48
2017-03-31T11:01:38.591Z,58.15
2017-03-31T11:02:38.583Z,58.61
2017-03-31T11:03:38.587Z,58.12
2017-03-31T11:04:38.578Z,59.58
2017-03-31T11:05:38.819Z,59.67
2017-03-31T11:06:38.569Z,58.35
2017-03-31T11:07:38.562Z,58.67
2017-03-31T11:08:38.558Z,56.95
2017-03-31T11:09:38.252Z,56.37
2017-03-31T11:10:38.244Z,56.57
2017-03-31T11:11:38.551Z,57.89
2017-03-31T11:12:38.547Z,58.18
2017-03-31T11:13:38.538Z,57.15
2017-03-31T11:14:38.537Z,55.79
2017-03-31T11:15:38.535Z,57.63
2017-03-31T11:16:38.526Z,58.18
2017-03-31T11:17:38.524Z,58.76
2017-03-31T11:18:38.515Z,57.41
2017-03-31T11:19:38.512Z,58.6
2017-03-31T11:20:38.508Z,56.76
2017-03-31T11:21:38.506Z,55.51
2017-03-31T11:22:38.503Z,55.24
2017-03-31T11:23:38.495Z,54.37
2017-03-31T11:24:38.492Z,54.47
2017-03-31T11:25:38.490Z,54.35
2017-03-31T11:26:38.485Z,53.69
2017-03-31T11:27:38.480Z,53.41
2017-03-31T11:28:38.480Z,52.75
2017-03-31T11:29:38.475Z,54.13
2017-03-31T11:30:38.473Z,52.12
2017-03-31T11:31:38.467Z,52.34
2017-03-31T11:32:38.466Z,52.51
2017-03-31T11:33:38.464Z,51.84
2017-03-31T11:34:38.463Z,52.32
2017-03-31T11:35:38.512Z,51.96
2017-03-31T11:36:38.466Z,52.08
2017-03-31T11:37:38.460Z,53.92
2017-03-31T11:38:38.461Z,50.84
2017-03-31T11:39:38.455Z,49.49
2017-03-31T11:40:38.464Z,50.92
2017-03-31T11:41:38.455Z,51.47
2017-03-31T11:42:38.468Z,51.35
2017-03-31T11:43:38.458Z,51.81
2017-03-31T11:44:38.470Z,52.97
2017-03-31T11:45:38.455Z,53.26
2017-03-31T11:46:38.456Z,51.64
2017-03-31T11:47:38.142Z,52.22
2017-03-31T11:48:38.143Z,50.5
2017-03-31T11:49:38.455Z,50.41
2017-03-31T11:50:38.451Z,48.69
2017-03-31T11:51:38.507Z,50.43
2017-03-31T11:52:38.455Z,49.37
2017-03-31T11:53:38.456Z,51.21
2017-03-31T11:54:38.459Z,49.97
2017-03-31T11:55:38.149Z,51.47
2017-03-31T11:56:38.456Z,50.12
2017-03-31T11:57:38.143Z,51.76
2017-03-31T11:58:38.459Z,50.34
2017-03-31T11:59:38.458Z,51.28
2017-03-31T12:00:38.151Z,50.31
2017-03-31T12:01:38.460Z,50.5
2017-03-31T12:02:38.461Z,51.37
2017-03-31T12:03:38.458Z,48.49
2017-03-31T12:04:38.458Z,48.66
2017-03-31T12:05:38.465Z,48.66
2017-03-31T12:06:38.149Z,48.44
2017-03-31T12:07:38.460Z,49.51
2017-03-31T12:08:38.457Z,49.41
2017-03-31T12:09:38.464Z,50.02
2017-03-31T12:10:38.147Z,49.27
2017-03-31T12:11:38.147Z,48.22
2017-03-31T12:12:38.457Z,47.38
2017-03-31T12:13:38.461Z,47.01
2017-03-31T12:14:38.457Z,46.33
2017-03-31T12:15:38.460Z,46.62
2017-03-31T12:16:38.496Z,47.28
2017-03-31T12:17:38.151Z,47.16
2017-03-31T12:18:38.466Z,47.55
2017-03-31T12:19:38.463Z,46.21
2017-03-31T12:20:38.461Z,46.75
2017-03-31T12:21:38.463Z,46.65
2017-03-31T12:22:38.152Z,46.55
2017-03-31T12:23:38.461Z,47.52
2017-03-31T12:24:38.460Z,47.18
2017-03-31T12:25:38.462Z,47.25
2017-03-31T12:26:38.521Z,46.81
2017-03-31T12:27:38.467Z,46.31
2017-03-31T12:28:38.155Z,46.91
2017-03-31T12:29:38.478Z,46.89
2017-03-31T12:30:38.467Z,46.35
2017-03-31T12:31:38.167Z,47.23
2017-03-31T12:32:38.475Z,46.28
2017-03-31T12:33:38.474Z,44.62
2017-03-31T12:34:38.476Z,44.06
2017-03-31T12:35:38.477Z,43.4
2017-03-31T12:36:38.479Z,42.33
2017-03-31T12:37:38.476Z,42.65
2017-03-31T12:38:38.484Z,43.4
2017-03-31T12:39:38.486Z,43.4
2017-03-31T12:40:38.491Z,43.58
2017-03-31T12:41:38.901Z,43.55
2017-03-31T12:42:38.494Z,43.51
2017-03-31T12:43:38.491Z,44.05
2017-03-31T12:44:38.499Z,43.68
2017-03-31T12:45:38.498Z,43.59
2017-03-31T12:46:38.508Z,43.59
2017-03-31T12:47:38.194Z,44.17
2017-03-31T12:48:38.502Z,43.71
2017-03-31T12:49:38.195Z,44.85
2017-03-31T12:50:38.505Z,43.8
2017-03-31T12:51:38.511Z,43.32
2017-03-31T12:52:38.510Z,44.19
2017-03-31T12:53:38.512Z,43.54